Terminal Aerodrome Forecast
Issued by NWS

Home | Current Version | Previous Version | Text Only | Print | Product List | Glossary On
Versions: 1 2 3 4 5 6 7 8 9 10 11 12 13 14 15
123
FTAK31 PAJN 072323
TAFAGY
TAF
PAGY 072323Z 0800/0824 VRB05KT 3SM -SN BR OVC025
      TEMPO 0800/0803 1SM -SN BR OVC015
     FM080300 VRB05KT 6SM -RASN BR OVC025
     FM081200 VRB05KT P6SM SCT025 BKN080
      AMD LTD TO CLD VIS AND WIND=

USA.gov is the U.S. government's official web portal to all federal, state and local government web resources and services.